Rochester International Airport
KRST : now visible

Airfield :











YOU CAN JOIN US ON...

 
LOGIN :

Register | Disclaimer

   EN    FR    IT 

 









Legend :    VFR   Marginal VFR   IFR   Intensive IFR   Very Intensive IFR
Visi :
Ceiling :
>= 8 km
>= 3000ft
5 to 8 km
1000 to 3000 ft
1500m to 5 km
500 to 1000 ft
800 to 1500m
200 to 500 ft
< 800m
< 200 ft
Symbols :   Thunderstorms  Fog  Heavy snow  Heavy precipitations  Wind > 20 kt






- Airport Elevation : 1317 ft
- IATA code : RST


KRST - Rochester International

CURRENT METAR :
  • 161454Z 15005KT 10SM CLR 21/13 A3006 RMK AO2 SLP178 T02060133 50003

EXPIRED METARs :
  • 161354Z 18004KT 10SM CLR 18/13 A3007 RMK AO2 SLP181 T01830128
  • 161254Z 19005KT 10SM CLR 16/12 A3006 RMK AO2 SLP178 T01560122

TAF KRST
Valid from the 16 at 12:00 until the 17 at 12:00 UTC


161120Z 1612/1712 21005KT P6SM FEW250
FM161800 20011KT P6SM SCT250
FM170000 20007KT P6SM SCT250
KZMP FIR / North America



MET'MAP, your aeronautical weather chart ! - Copyright ORBIFLY December 2007 - Disclaimer

ORBIFLY MET'MAP TEAM :

Programming & Development : Alexandra Zaïnal
Concept & original design : Baudouin d'Aumeries
Assistance for programming : Marc-Olivier Méhu
Technical & hardware support : Manuel Goepfert

Contact : metmap@orbifly.com




SOURCES & CREDITS :

   NOAA       Earth
Advisory